Terminal Aerodrome Forecast
Issued by NWS Kansas City/Pleasant Hill, MO

Home | Current Version | Previous Version | Text Only | Print | Product List | Glossary On
Versions: 1 2 3 4 5 6 7 8 9 10 11 12 13 14 15
529
FTUS43 KEAX 250527 AAA
TAFMCI
TAF AMD
KMCI 250527Z 2505/2606 VRB05KT P6SM -SHRA VCTS BKN035CB
      TEMPO 2506/2508 5SM -TSRA
     FM250900 26006KT P6SM VCSH OVC035
     FM251500 33010KT P6SM OVC040
     FM252300 31008KT P6SM SCT150=

USA.gov is the U.S. government's official web portal to all federal, state and local government web resources and services.